createdAt,value
2022-08-25T00:00:14.737Z,8.80
2022-08-25T00:03:02.981Z,9.18
2022-08-25T00:05:33.738Z,9.50
2022-08-25T00:08:06.101Z,9.13
2022-08-25T00:10:36.072Z,9.30
2022-08-25T00:13:05.324Z,9.07
2022-08-25T00:15:34.041Z,8.73
2022-08-25T00:18:03.040Z,8.50
2022-08-25T00:20:34.412Z,7.68
2022-08-25T00:23:04.094Z,8.70
2022-08-25T00:25:36.094Z,9.65
2022-08-25T00:28:08.354Z,8.63
2022-08-25T00:30:37.779Z,8.00
2022-08-25T00:33:07.232Z,7.97
2022-08-25T00:35:35.697Z,8.38
2022-08-25T00:38:05.739Z,8.65
2022-08-25T00:40:35.078Z,7.95
2022-08-25T00:43:03.468Z,8.18
2022-08-25T00:45:32.202Z,8.68
2022-08-25T00:48:01.276Z,9.18
2022-08-25T00:50:30.924Z,8.35
2022-08-25T00:53:03.230Z,8.75
2022-08-25T00:55:36.918Z,8.00
2022-08-25T00:58:11.569Z,8.40
2022-08-25T01:00:42.656Z,8.00
2022-08-25T01:03:11.847Z,8.27
2022-08-25T01:05:41.356Z,8.00
2022-08-25T01:08:11.551Z,8.45
2022-08-25T01:10:47.671Z,8.80
2022-08-25T01:13:20.221Z,8.57
2022-08-25T01:15:50.277Z,8.40
2022-08-25T01:18:18.677Z,8.68
2022-08-25T01:20:50.952Z,8.52
2022-08-25T01:23:20.136Z,9.27
2022-08-25T01:25:53.980Z,8.70
2022-08-25T01:28:22.512Z,9.15
2022-08-25T01:30:50.836Z,9.27
2022-08-25T01:33:20.054Z,8.25
2022-08-25T01:35:50.707Z,8.93
2022-08-25T01:38:20.937Z,8.18
2022-08-25T01:40:51.856Z,10.07
2022-08-25T01:43:31.886Z,8.88
2022-08-25T01:46:00.673Z,9.23
2022-08-25T01:48:28.903Z,8.63
2022-08-25T01:50:59.019Z,8.30
2022-08-25T01:53:29.674Z,8.88
2022-08-25T01:56:10.264Z,10.10
2022-08-25T01:58:41.081Z,8.50
2022-08-25T02:01:13.574Z,8.60
2022-08-25T02:03:44.157Z,8.88
2022-08-25T02:06:18.530Z,8.55
2022-08-25T02:08:51.107Z,8.57
2022-08-25T02:11:19.747Z,8.63
2022-08-25T02:13:48.254Z,8.70
2022-08-25T02:16:20.977Z,8.88
2022-08-25T02:18:49.581Z,8.70
2022-08-25T02:21:19.079Z,8.82
2022-08-25T02:23:48.137Z,8.75
2022-08-25T02:26:19.066Z,9.90
2022-08-25T02:28:48.092Z,9.13
2022-08-25T02:31:17.974Z,9.70
2022-08-25T02:33:46.856Z,8.80
2022-08-25T02:36:15.917Z,9.55
2022-08-25T02:38:46.210Z,8.48
2022-08-25T02:41:16.679Z,9.85
2022-08-25T02:43:45.266Z,9.13
2022-08-25T02:46:14.368Z,9.55
2022-08-25T02:48:42.870Z,9.63
2022-08-25T02:51:12.346Z,9.35
2022-08-25T02:53:45.891Z,10.18
2022-08-25T02:56:18.399Z,10.38
2022-08-25T02:58:47.248Z,11.40
2022-08-25T03:01:16.937Z,10.50
2022-08-25T03:03:47.547Z,10.68
2022-08-25T03:06:19.763Z,11.75
2022-08-25T03:08:48.299Z,11.80
2022-08-25T03:11:18.696Z,11.95
2022-08-25T03:13:47.802Z,11.63
2022-08-25T03:16:16.225Z,12.32
2022-08-25T03:18:44.942Z,10.70
2022-08-25T03:21:15.783Z,11.35
2022-08-25T03:23:48.559Z,12.40
2022-08-25T03:26:35.870Z,12.20
2022-08-25T03:29:05.190Z,11.48
2022-08-25T03:31:34.786Z,11.95
2022-08-25T03:34:03.475Z,12.23
2022-08-25T03:36:32.155Z,11.98
2022-08-25T03:39:00.631Z,12.40
2022-08-25T03:41:32.731Z,11.82
2022-08-25T03:44:03.354Z,11.38
2022-08-25T03:46:36.339Z,11.70
2022-08-25T03:49:07.174Z,11.15
2022-08-25T03:51:37.565Z,12.02
2022-08-25T03:54:06.463Z,10.70
2022-08-25T03:56:36.024Z,11.48
2022-08-25T03:59:04.418Z,16.00
2022-08-25T04:01:33.281Z,13.95
2022-08-25T04:04:01.553Z,13.57
2022-08-25T04:06:30.041Z,12.45
2022-08-25T04:08:59.785Z,12.07
2022-08-25T04:11:29.307Z,11.52
2022-08-25T04:14:01.162Z,11.43
2022-08-25T04:16:31.597Z,12.30
2022-08-25T04:19:02.383Z,10.40
2022-08-25T04:21:31.759Z,10.82
2022-08-25T04:24:00.156Z,10.82
2022-08-25T04:26:30.953Z,11.25
2022-08-25T04:29:02.984Z,11.32
2022-08-25T04:31:31.850Z,10.70
2022-08-25T04:34:03.387Z,9.98
2022-08-25T04:36:32.179Z,10.68
2022-08-25T04:39:00.652Z,10.57
2022-08-25T04:41:30.123Z,9.75
2022-08-25T04:44:01.145Z,11.02
2022-08-25T04:46:32.225Z,10.30
2022-08-25T04:49:03.106Z,10.88
2022-08-25T04:51:34.787Z,10.82
2022-08-25T04:54:06.059Z,11.43
2022-08-25T04:56:35.178Z,10.35
2022-08-25T04:59:07.235Z,10.20
2022-08-25T05:01:35.964Z,10.68
2022-08-25T05:04:09.139Z,10.27
2022-08-25T05:06:44.353Z,9.95
2022-08-25T05:09:13.531Z,10.77
2022-08-25T05:11:48.366Z,9.75
2022-08-25T05:14:21.632Z,9.57
2022-08-25T05:16:55.116Z,9.75
2022-08-25T05:19:24.431Z,9.30
2022-08-25T05:21:53.901Z,10.35
2022-08-25T05:24:23.251Z,10.13
2022-08-25T05:26:51.589Z,14.93
2022-08-25T05:29:21.134Z,10.90
2022-08-25T05:31:50.867Z,11.50
2022-08-25T05:34:20.766Z,11.55
2022-08-25T05:36:49.903Z,10.45
2022-08-25T05:39:18.379Z,12.45
2022-08-25T05:41:46.675Z,10.65
2022-08-25T05:44:19.065Z,10.60
2022-08-25T05:46:51.389Z,10.43
2022-08-25T05:49:19.882Z,11.15
2022-08-25T05:51:48.236Z,10.48
2022-08-25T05:54:16.940Z,10.95
2022-08-25T05:56:46.220Z,9.57
2022-08-25T05:59:15.184Z,13.27
2022-08-25T06:02:01.278Z,20.40
2022-08-25T06:04:31.280Z,14.98
2022-08-25T06:06:59.823Z,12.48
2022-08-25T06:09:28.268Z,10.55
2022-08-25T06:11:56.639Z,9.25
2022-08-25T06:14:25.887Z,9.77
2022-08-25T06:16:54.359Z,9.73
2022-08-25T06:19:23.912Z,9.75
2022-08-25T06:21:56.827Z,9.60
2022-08-25T06:24:26.540Z,9.30
2022-08-25T06:26:56.105Z,10.20
2022-08-25T06:29:25.211Z,9.70
2022-08-25T06:31:54.159Z,9.38
2022-08-25T06:34:24.303Z,9.65
2022-08-25T06:36:52.967Z,8.68
2022-08-25T06:39:24.015Z,9.30
2022-08-25T06:41:53.884Z,9.35
2022-08-25T06:44:23.066Z,9.55
2022-08-25T06:46:51.993Z,8.02
2022-08-25T06:49:21.454Z,7.55
2022-08-25T06:51:50.239Z,8.30
2022-08-25T06:54:18.466Z,7.47
2022-08-25T06:56:49.768Z,8.63
2022-08-25T06:59:18.955Z,8.20
2022-08-25T07:01:50.132Z,8.55
2022-08-25T07:04:21.103Z,9.32
2022-08-25T07:06:49.578Z,8.32
2022-08-25T07:09:17.860Z,9.25
2022-08-25T07:11:48.455Z,7.43
2022-08-25T07:14:18.621Z,8.00
2022-08-25T07:16:50.348Z,8.75
2022-08-25T07:19:21.006Z,7.45
2022-08-25T07:21:52.689Z,8.75
2022-08-25T07:24:22.077Z,7.13
2022-08-25T07:26:52.545Z,8.38
2022-08-25T07:32:12.800Z,8.98
2022-08-25T07:34:58.375Z,13.57
2022-08-25T07:37:47.729Z,10.27
2022-08-25T07:40:18.679Z,7.80
2022-08-25T07:42:49.836Z,8.10
2022-08-25T07:48:10.479Z,8.82
2022-08-25T07:50:42.062Z,8.80
2022-08-25T07:53:11.335Z,8.13
2022-08-25T07:55:41.833Z,8.63
2022-08-25T07:58:15.305Z,8.48
2022-08-25T08:00:44.452Z,8.55
2022-08-25T08:03:35.264Z,8.10
2022-08-25T08:06:02.240Z,8.43
2022-08-25T08:08:30.522Z,7.72
2022-08-25T08:11:04.909Z,7.18
2022-08-25T08:13:40.778Z,8.10
2022-08-25T08:16:10.793Z,7.55
2022-08-25T08:18:42.532Z,7.45
2022-08-25T08:21:13.969Z,7.63
2022-08-25T08:23:49.515Z,8.40
2022-08-25T08:26:18.600Z,8.30
2022-08-25T08:28:51.875Z,7.40
2022-08-25T08:31:21.598Z,7.28
2022-08-25T08:33:51.715Z,6.88
2022-08-25T08:36:20.162Z,7.85
2022-08-25T08:38:49.423Z,8.02
2022-08-25T08:42:07.645Z,7.47
2022-08-25T08:44:50.319Z,6.95
2022-08-25T08:47:27.752Z,7.47
2022-08-25T08:50:03.994Z,7.53
2022-08-25T08:52:41.595Z,7.60
2022-08-25T08:55:19.030Z,7.03
2022-08-25T08:57:50.798Z,7.10
2022-08-25T09:00:20.880Z,6.93
2022-08-25T09:02:54.184Z,7.43
2022-08-25T09:05:26.014Z,7.97
2022-08-25T09:07:57.147Z,7.28
2022-08-25T09:10:29.543Z,7.63
2022-08-25T09:13:05.723Z,8.77
2022-08-25T09:16:06.727Z,7.70
2022-08-25T09:18:51.442Z,7.05
2022-08-25T09:21:31.059Z,6.93
2022-08-25T09:24:19.064Z,6.20
2022-08-25T09:26:59.653Z,6.95
2022-08-25T09:29:37.791Z,6.85
2022-08-25T09:32:09.333Z,6.97
2022-08-25T09:34:39.115Z,7.55
2022-08-25T09:37:07.653Z,7.25
2022-08-25T09:39:36.544Z,8.13
2022-08-25T09:42:05.270Z,6.50
2022-08-25T09:44:41.253Z,7.28
2022-08-25T09:47:23.722Z,8.27
2022-08-25T09:50:00.194Z,7.05
2022-08-25T09:52:34.864Z,6.90
2022-08-25T09:55:32.657Z,6.35
2022-08-25T09:58:02.292Z,7.53
2022-08-25T10:00:38.194Z,7.97
2022-08-25T10:03:15.725Z,7.28
2022-08-25T10:06:04.194Z,7.28
2022-08-25T10:08:37.732Z,6.63
2022-08-25T10:11:13.059Z,7.15
2022-08-25T10:13:45.051Z,6.70
2022-08-25T10:16:25.007Z,7.28
2022-08-25T10:19:08.300Z,7.50
2022-08-25T10:21:38.310Z,7.40
2022-08-25T10:24:08.060Z,7.10
2022-08-25T10:26:49.346Z,6.70
2022-08-25T10:29:43.906Z,6.88
2022-08-25T10:32:19.894Z,6.60
2022-08-25T10:34:52.967Z,7.38
2022-08-25T10:37:32.744Z,5.80
2022-08-25T10:40:09.865Z,7.85
2022-08-25T10:42:48.871Z,7.10
2022-08-25T10:45:38.703Z,7.47
2022-08-25T10:48:36.814Z,7.03
2022-08-25T10:51:23.694Z,6.57
2022-08-25T10:54:02.178Z,6.68
2022-08-25T10:56:34.979Z,7.38
2022-08-25T10:59:29.908Z,7.22
2022-08-25T11:02:25.421Z,6.07
2022-08-25T11:05:01.139Z,6.53
2022-08-25T11:07:35.398Z,7.47
2022-08-25T11:10:09.889Z,6.20
2022-08-25T11:12:44.761Z,6.47
2022-08-25T11:15:19.037Z,6.00
2022-08-25T11:17:51.712Z,6.25
2022-08-25T11:20:27.039Z,5.75
2022-08-25T11:23:09.064Z,6.10
2022-08-25T11:25:43.840Z,5.72
2022-08-25T11:28:15.771Z,5.32
2022-08-25T11:30:44.846Z,5.03
2022-08-25T11:33:17.659Z,5.28
2022-08-25T11:35:52.440Z,6.13
2022-08-25T11:38:37.809Z,5.30
2022-08-25T11:41:16.829Z,5.18
2022-08-25T11:44:02.617Z,4.90
2022-08-25T11:46:51.208Z,5.50
2022-08-25T11:49:41.481Z,5.03
2022-08-25T11:52:42.198Z,4.50
2022-08-25T11:55:16.089Z,5.25
2022-08-25T11:57:47.943Z,5.15
2022-08-25T12:00:38.559Z,5.03
2022-08-25T12:03:42.305Z,5.10
2022-08-25T12:06:20.786Z,5.10
2022-08-25T12:08:52.372Z,5.43
2022-08-25T12:11:47.996Z,5.75
2022-08-25T12:14:34.800Z,5.43
2022-08-25T12:17:13.308Z,6.10
2022-08-25T12:19:57.256Z,5.50
2022-08-25T12:22:58.335Z,5.30
2022-08-25T12:25:39.050Z,5.18
2022-08-25T12:28:30.206Z,5.07
2022-08-25T12:31:11.274Z,6.15
2022-08-25T12:33:50.437Z,4.93
2022-08-25T12:36:29.161Z,4.63
2022-08-25T12:39:18.258Z,4.60
2022-08-25T12:41:59.431Z,5.28
2022-08-25T12:44:42.138Z,5.10
2022-08-25T12:47:31.909Z,6.50
2022-08-25T12:50:35.596Z,5.70
2022-08-25T12:53:12.517Z,5.00
2022-08-25T12:55:47.908Z,8.13
2022-08-25T12:58:17.000Z,6.30
2022-08-25T13:01:17.367Z,6.15
2022-08-25T13:04:27.046Z,6.43
2022-08-25T13:07:06.271Z,5.60
2022-08-25T13:10:11.764Z,5.88
2022-08-25T13:12:47.787Z,6.18
2022-08-25T13:15:35.226Z,6.10
2022-08-25T13:18:21.463Z,5.03
2022-08-25T13:20:53.948Z,6.13
2022-08-25T13:23:29.262Z,5.05
2022-08-25T13:25:58.526Z,5.28
2022-08-25T13:28:36.258Z,5.13
2022-08-25T13:31:08.766Z,6.13
2022-08-25T13:33:38.777Z,6.13
2022-08-25T13:36:25.426Z,5.75
2022-08-25T13:38:54.623Z,5.43
2022-08-25T13:41:29.268Z,5.03
2022-08-25T13:44:01.798Z,5.88
2022-08-25T13:46:31.704Z,4.68
2022-08-25T13:49:08.756Z,5.20
2022-08-25T13:51:41.577Z,4.85
2022-08-25T13:54:25.992Z,5.00
2022-08-25T13:56:54.927Z,4.38
2022-08-25T13:59:26.861Z,4.70
2022-08-25T14:01:56.375Z,4.38
2022-08-25T14:04:32.894Z,4.55
2022-08-25T14:07:26.888Z,5.70
2022-08-25T14:10:06.577Z,4.75
2022-08-25T14:12:39.551Z,4.30
2022-08-25T14:15:14.803Z,5.20
2022-08-25T14:20:25.726Z,4.85
2022-08-25T14:22:58.025Z,4.32
2022-08-25T14:25:27.975Z,15.93
2022-08-25T14:28:13.871Z,5.70
2022-08-25T14:30:47.168Z,5.30
2022-08-25T14:33:18.172Z,5.45
2022-08-25T14:35:52.568Z,5.07
2022-08-25T14:38:23.140Z,4.95
2022-08-25T14:40:52.014Z,14.27
2022-08-25T14:43:23.745Z,6.45
2022-08-25T14:45:53.467Z,5.30
2022-08-25T14:48:26.769Z,4.78
2022-08-25T14:50:59.443Z,4.95
2022-08-25T14:53:28.712Z,5.07
2022-08-25T14:55:59.033Z,4.50
2022-08-25T14:58:33.824Z,5.20
2022-08-25T15:01:04.291Z,5.20
2022-08-25T15:03:37.378Z,5.25
2022-08-25T15:06:08.420Z,5.00
2022-08-25T15:08:57.746Z,4.88
2022-08-25T15:11:26.918Z,5.32
2022-08-25T15:13:58.315Z,5.32
2022-08-25T15:16:33.759Z,5.15
2022-08-25T15:19:06.808Z,6.63
2022-08-25T15:21:37.866Z,6.38
2022-08-25T15:24:08.806Z,5.20
2022-08-25T15:26:43.704Z,5.00
2022-08-25T15:29:12.819Z,5.78
2022-08-25T15:31:41.541Z,5.22
2022-08-25T15:34:11.674Z,4.75
2022-08-25T15:36:41.748Z,5.07
2022-08-25T15:39:11.539Z,5.68
2022-08-25T15:41:39.863Z,5.18
2022-08-25T15:44:11.429Z,4.90
2022-08-25T15:46:46.969Z,5.45
2022-08-25T15:49:20.703Z,5.53
2022-08-25T15:51:54.590Z,5.47
2022-08-25T15:54:26.702Z,5.47
2022-08-25T15:56:56.114Z,5.43
2022-08-25T15:59:25.509Z,5.30
2022-08-25T16:01:54.380Z,5.00
2022-08-25T16:04:24.248Z,6.82
2022-08-25T16:06:54.556Z,5.13
2022-08-25T16:09:24.421Z,4.47
2022-08-25T16:11:56.140Z,4.65
2022-08-25T16:14:27.841Z,5.57
2022-08-25T16:16:58.383Z,11.35
2022-08-25T16:19:28.621Z,5.22
2022-08-25T16:21:59.019Z,5.72
2022-08-25T16:24:28.825Z,4.80
2022-08-25T16:27:11.394Z,5.18
2022-08-25T16:29:42.532Z,5.13
2022-08-25T16:32:13.295Z,5.20
2022-08-25T16:34:42.878Z,4.70
2022-08-25T16:37:14.605Z,5.85
2022-08-25T16:39:46.042Z,5.13
2022-08-25T16:42:15.186Z,4.97
2022-08-25T16:44:43.586Z,4.90
2022-08-25T16:47:14.376Z,5.05
2022-08-25T16:49:46.542Z,4.65
2022-08-25T16:52:34.661Z,4.75
2022-08-25T16:55:16.470Z,5.78
2022-08-25T16:57:47.828Z,4.82
2022-08-25T17:00:19.216Z,4.63
2022-08-25T17:02:47.738Z,5.05
2022-08-25T17:05:17.044Z,5.63
2022-08-25T17:08:08.633Z,5.40
2022-08-25T17:10:38.888Z,4.97
2022-08-25T17:13:07.870Z,6.78
2022-08-25T17:15:39.974Z,5.03
2022-08-25T17:18:08.642Z,5.05
2022-08-25T17:20:39.630Z,5.55
2022-08-25T17:23:12.171Z,4.85
2022-08-25T17:25:43.468Z,5.03
2022-08-25T17:28:12.931Z,5.78
2022-08-25T17:30:41.986Z,5.05
2022-08-25T17:33:10.645Z,6.38
2022-08-25T17:35:40.769Z,5.20
2022-08-25T17:38:11.126Z,6.55
2022-08-25T17:40:40.667Z,10.98
2022-08-25T17:43:09.986Z,22.65
2022-08-25T17:45:39.151Z,16.42
2022-08-25T17:48:09.201Z,11.95
2022-08-25T17:50:39.067Z,12.05
2022-08-25T17:53:07.863Z,10.57
2022-08-25T17:55:40.329Z,10.05
2022-08-25T17:58:13.166Z,9.05
2022-08-25T18:00:44.070Z,8.70
2022-08-25T18:03:12.776Z,9.05
2022-08-25T18:05:41.483Z,8.60
2022-08-25T18:08:10.441Z,7.97
2022-08-25T18:10:40.498Z,7.07
2022-08-25T18:13:09.098Z,8.18
2022-08-25T18:15:37.532Z,33.95
2022-08-25T18:18:11.051Z,29.02
2022-08-25T18:20:43.649Z,27.23
2022-08-25T18:23:12.674Z,16.50
2022-08-25T18:25:43.079Z,12.65
2022-08-25T18:28:13.099Z,11.40
2022-08-25T18:30:43.211Z,10.13
2022-08-25T18:33:12.182Z,9.05
2022-08-25T18:35:40.958Z,9.43
2022-08-25T18:38:27.132Z,9.15
2022-08-25T18:40:59.188Z,9.25
2022-08-25T18:43:28.920Z,7.78
2022-08-25T18:46:00.721Z,7.95
2022-08-25T18:48:29.178Z,8.05
2022-08-25T18:50:57.714Z,7.55
2022-08-25T18:53:36.775Z,7.35
2022-08-25T18:56:09.902Z,6.95
2022-08-25T18:58:38.284Z,7.70
2022-08-25T19:01:12.983Z,7.68
2022-08-25T19:03:41.933Z,8.82
2022-08-25T19:06:11.116Z,7.70
2022-08-25T19:08:41.834Z,10.13
2022-08-25T19:11:12.002Z,22.35
2022-08-25T19:13:41.283Z,30.17
2022-08-25T19:16:11.698Z,17.98
2022-08-25T19:18:41.484Z,16.02
2022-08-25T19:21:10.843Z,10.45
2022-08-25T19:23:39.153Z,8.75
2022-08-25T19:26:17.026Z,9.80
2022-08-25T19:28:49.102Z,8.55
2022-08-25T19:31:18.318Z,7.55
2022-08-25T19:33:47.190Z,31.52
2022-08-25T19:36:16.960Z,21.23
2022-08-25T19:38:45.640Z,22.02
2022-08-25T19:41:15.021Z,11.90
2022-08-25T19:43:56.283Z,11.40
2022-08-25T19:46:33.052Z,11.77
2022-08-25T19:49:06.887Z,9.48
2022-08-25T19:51:36.812Z,9.65
2022-08-25T19:54:06.642Z,8.88
2022-08-25T19:56:37.938Z,8.95
2022-08-25T19:59:13.778Z,8.18
2022-08-25T20:01:42.957Z,8.10
2022-08-25T20:04:11.527Z,8.30
2022-08-25T20:06:41.321Z,7.80
2022-08-25T20:09:35.801Z,7.30
2022-08-25T20:11:58.259Z,7.75
2022-08-25T20:14:28.264Z,6.97
2022-08-25T20:16:56.574Z,7.20
2022-08-25T20:19:25.073Z,8.45
2022-08-25T20:21:53.672Z,7.82
2022-08-25T20:24:40.235Z,7.47
2022-08-25T20:27:09.140Z,7.93
2022-08-25T20:29:38.655Z,9.88
2022-08-25T20:32:07.425Z,31.92
2022-08-25T20:34:36.216Z,26.75
2022-08-25T20:37:05.979Z,14.30
2022-08-25T20:39:35.501Z,12.00
2022-08-25T20:42:05.220Z,9.45
2022-08-25T20:44:36.703Z,9.95
2022-08-25T20:47:11.398Z,8.32
2022-08-25T20:49:40.254Z,8.25
2022-08-25T20:52:08.871Z,9.70
2022-08-25T20:54:37.628Z,7.88
2022-08-25T20:57:07.889Z,12.23
2022-08-25T20:59:36.464Z,21.38
2022-08-25T21:02:05.051Z,18.92
2022-08-25T21:04:34.704Z,12.75
2022-08-25T21:07:07.929Z,11.25
2022-08-25T21:09:38.372Z,10.60
2022-08-25T21:12:07.744Z,10.05
2022-08-25T21:14:39.067Z,8.95
2022-08-25T21:17:07.465Z,8.80
2022-08-25T21:19:37.407Z,8.10
2022-08-25T21:22:08.525Z,9.02
2022-08-25T21:24:39.283Z,8.45
2022-08-25T21:27:08.231Z,7.75
2022-08-25T21:29:37.256Z,9.18
2022-08-25T21:32:05.611Z,8.02
2022-08-25T21:34:34.597Z,8.05
2022-08-25T21:37:05.674Z,8.48
2022-08-25T21:39:34.024Z,8.75
2022-08-25T21:42:03.415Z,8.18
2022-08-25T21:44:32.038Z,7.90
2022-08-25T21:47:01.258Z,7.85
2022-08-25T21:49:29.994Z,7.45
2022-08-25T21:52:07.424Z,7.78
2022-08-25T21:54:35.657Z,7.60
2022-08-25T21:57:06.547Z,7.38
2022-08-25T21:59:37.917Z,9.20
2022-08-25T22:02:08.795Z,10.63
2022-08-25T22:04:38.918Z,14.93
2022-08-25T22:07:09.476Z,13.60
2022-08-25T22:09:39.078Z,9.38
2022-08-25T22:12:08.777Z,9.45
2022-08-25T22:14:38.037Z,8.38
2022-08-25T22:17:10.061Z,8.27
2022-08-25T22:19:42.563Z,8.02
2022-08-25T22:22:12.454Z,8.05
2022-08-25T22:24:40.629Z,7.85
2022-08-25T22:27:15.373Z,8.05
2022-08-25T22:29:44.306Z,7.95
2022-08-25T22:32:13.674Z,7.55
2022-08-25T22:34:43.674Z,8.52
2022-08-25T22:37:13.488Z,7.80
2022-08-25T22:39:46.405Z,7.05
2022-08-25T22:42:15.384Z,7.97
2022-08-25T22:44:43.651Z,8.63
2022-08-25T22:47:12.426Z,8.15
2022-08-25T22:49:41.108Z,8.30
2022-08-25T22:52:12.809Z,8.15
2022-08-25T22:54:44.079Z,7.82
2022-08-25T22:57:13.050Z,8.82
2022-08-25T22:59:41.523Z,8.23
2022-08-25T23:02:10.235Z,7.90
2022-08-25T23:04:41.529Z,9.38
2022-08-25T23:07:12.539Z,9.05
2022-08-25T23:09:40.821Z,8.40
2022-08-25T23:12:10.630Z,7.93
2022-08-25T23:14:42.229Z,8.65
2022-08-25T23:17:12.628Z,8.25
2022-08-25T23:19:41.024Z,6.95
2022-08-25T23:22:12.507Z,7.53
2022-08-25T23:24:42.573Z,8.75
2022-08-25T23:27:15.723Z,8.43
2022-08-25T23:29:47.825Z,8.10
2022-08-25T23:32:18.319Z,13.25
2022-08-25T23:34:47.401Z,14.15
2022-08-25T23:37:18.645Z,9.60
2022-08-25T23:39:49.375Z,9.77
2022-08-25T23:42:21.425Z,8.13
2022-08-25T23:44:50.244Z,9.20
2022-08-25T23:47:19.081Z,8.95
2022-08-25T23:49:49.072Z,9.07
2022-08-25T23:52:18.322Z,9.30
2022-08-25T23:54:46.976Z,9.27
2022-08-25T23:57:15.537Z,9.18
2022-08-25T23:59:45.267Z,8.55
